sensor_id;sensor_type;location;lat;lon;timestamp;P1;durP1;ratioP1;P2;durP2;ratioP2
28627;SDS011;15815;46.760;19.604;2023-07-08T00:00:54;656.75;;;604.17;;
28627;SDS011;15815;46.760;19.604;2023-07-08T00:03:24;672.50;;;618.95;;
28627;SDS011;15815;46.760;19.604;2023-07-08T00:05:51;662.05;;;609.88;;
28627;SDS011;15815;46.760;19.604;2023-07-08T00:08:20;662.67;;;611.17;;
28627;SDS011;15815;46.760;19.604;2023-07-08T00:10:46;671.97;;;618.58;;
28627;SDS011;15815;46.760;19.604;2023-07-08T00:13:12;664.67;;;612.83;;
28627;SDS011;15815;46.760;19.604;2023-07-08T00:15:38;675.85;;;623.08;;
28627;SDS011;15815;46.760;19.604;2023-07-08T00:18:12;679.35;;;625.75;;
28627;SDS011;15815;46.760;19.604;2023-07-08T00:20:44;682.40;;;628.80;;
28627;SDS011;15815;46.760;19.604;2023-07-08T00:23:11;672.75;;;621.05;;
28627;SDS011;15815;46.760;19.604;2023-07-08T00:25:37;681.15;;;628.72;;
28627;SDS011;15815;46.760;19.604;2023-07-08T00:28:17;692.65;;;639.88;;
28627;SDS011;15815;46.760;19.604;2023-07-08T00:30:44;680.05;;;629.00;;
28627;SDS011;15815;46.760;19.604;2023-07-08T00:33:09;685.20;;;633.13;;
28627;SDS011;15815;46.760;19.604;2023-07-08T00:35:39;701.97;;;648.47;;
28627;SDS011;15815;46.760;19.604;2023-07-08T00:43:13;690.38;;;640.20;;
28627;SDS011;15815;46.760;19.604;2023-07-08T00:45:43;692.45;;;640.90;;
28627;SDS011;15815;46.760;19.604;2023-07-08T00:48:24;704.63;;;652.22;;
28627;SDS011;15815;46.760;19.604;2023-07-08T00:50:53;667.97;;;620.72;;
28627;SDS011;15815;46.760;19.604;2023-07-08T00:53:30;689.40;;;640.05;;
28627;SDS011;15815;46.760;19.604;2023-07-08T00:56:02;683.28;;;634.53;;
28627;SDS011;15815;46.760;19.604;2023-07-08T00:58:43;671.20;;;623.00;;
28627;SDS011;15815;46.760;19.604;2023-07-08T01:01:13;653.17;;;607.05;;
28627;SDS011;15815;46.760;19.604;2023-07-08T01:03:42;602.72;;;561.92;;
28627;SDS011;15815;46.760;19.604;2023-07-08T01:06:17;612.10;;;570.92;;
28627;SDS011;15815;46.760;19.604;2023-07-08T01:08:45;578.42;;;540.00;;
28627;SDS011;15815;46.760;19.604;2023-07-08T01:11:12;588.05;;;548.50;;
28627;SDS011;15815;46.760;19.604;2023-07-08T01:13:40;581.33;;;542.60;;
28627;SDS011;15815;46.760;19.604;2023-07-08T01:16:13;571.13;;;533.95;;
28627;SDS011;15815;46.760;19.604;2023-07-08T01:21:26;566.38;;;530.03;;
28627;SDS011;15815;46.760;19.604;2023-07-08T01:24:05;557.97;;;522.03;;
28627;SDS011;15815;46.760;19.604;2023-07-08T01:26:33;587.85;;;549.38;;
28627;SDS011;15815;46.760;19.604;2023-07-08T01:29:01;544.30;;;508.08;;
28627;SDS011;15815;46.760;19.604;2023-07-08T01:31:30;556.50;;;519.83;;
28627;SDS011;15815;46.760;19.604;2023-07-08T01:33:56;541.47;;;504.83;;
28627;SDS011;15815;46.760;19.604;2023-07-08T01:36:22;527.92;;;493.20;;
28627;SDS011;15815;46.760;19.604;2023-07-08T01:38:50;546.28;;;510.30;;
28627;SDS011;15815;46.760;19.604;2023-07-08T01:41:16;509.92;;;476.35;;
28627;SDS011;15815;46.760;19.604;2023-07-08T01:43:46;483.27;;;452.67;;
28627;SDS011;15815;46.760;19.604;2023-07-08T01:46:17;496.20;;;463.92;;
28627;SDS011;15815;46.760;19.604;2023-07-08T01:48:48;506.35;;;473.00;;
28627;SDS011;15815;46.760;19.604;2023-07-08T01:51:21;495.35;;;462.58;;
28627;SDS011;15815;46.760;19.604;2023-07-08T01:53:49;494.08;;;461.23;;
28627;SDS011;15815;46.760;19.604;2023-07-08T01:56:14;473.58;;;442.50;;
28627;SDS011;15815;46.760;19.604;2023-07-08T01:58:40;457.08;;;427.52;;
28627;SDS011;15815;46.760;19.604;2023-07-08T02:01:07;459.92;;;429.75;;
28627;SDS011;15815;46.760;19.604;2023-07-08T02:03:36;487.77;;;455.55;;
28627;SDS011;15815;46.760;19.604;2023-07-08T02:06:03;496.65;;;464.65;;
28627;SDS011;15815;46.760;19.604;2023-07-08T02:08:28;465.98;;;436.38;;
28627;SDS011;15815;46.760;19.604;2023-07-08T02:10:55;509.25;;;475.92;;
28627;SDS011;15815;46.760;19.604;2023-07-08T02:13:23;480.02;;;448.52;;
28627;SDS011;15815;46.760;19.604;2023-07-08T02:15:49;480.40;;;448.92;;
28627;SDS011;15815;46.760;19.604;2023-07-08T02:18:17;473.30;;;442.67;;
28627;SDS011;15815;46.760;19.604;2023-07-08T02:20:43;466.65;;;436.33;;
28627;SDS011;15815;46.760;19.604;2023-07-08T02:23:09;489.48;;;457.48;;
28627;SDS011;15815;46.760;19.604;2023-07-08T02:25:35;480.60;;;449.55;;
28627;SDS011;15815;46.760;19.604;2023-07-08T02:28:00;490.92;;;459.45;;
28627;SDS011;15815;46.760;19.604;2023-07-08T02:30:26;479.55;;;448.52;;
28627;SDS011;15815;46.760;19.604;2023-07-08T02:32:52;476.17;;;445.23;;
28627;SDS011;15815;46.760;19.604;2023-07-08T02:35:17;452.00;;;422.67;;
28627;SDS011;15815;46.760;19.604;2023-07-08T02:37:45;473.05;;;442.50;;
28627;SDS011;15815;46.760;19.604;2023-07-08T02:40:11;477.67;;;446.13;;
28627;SDS011;15815;46.760;19.604;2023-07-08T02:42:36;469.95;;;439.63;;
28627;SDS011;15815;46.760;19.604;2023-07-08T02:45:02;449.33;;;420.20;;
28627;SDS011;15815;46.760;19.604;2023-07-08T02:47:28;444.23;;;415.52;;
28627;SDS011;15815;46.760;19.604;2023-07-08T02:49:53;468.52;;;438.15;;
28627;SDS011;15815;46.760;19.604;2023-07-08T02:52:19;448.92;;;419.25;;
28627;SDS011;15815;46.760;19.604;2023-07-08T02:54:47;441.67;;;412.48;;
28627;SDS011;15815;46.760;19.604;2023-07-08T02:57:13;450.27;;;421.10;;
28627;SDS011;15815;46.760;19.604;2023-07-08T02:59:42;450.02;;;421.38;;
28627;SDS011;15815;46.760;19.604;2023-07-08T03:02:07;439.92;;;410.80;;
28627;SDS011;15815;46.760;19.604;2023-07-08T03:04:33;456.45;;;426.92;;
28627;SDS011;15815;46.760;19.604;2023-07-08T03:06:59;454.50;;;424.17;;
28627;SDS011;15815;46.760;19.604;2023-07-08T03:09:25;452.77;;;423.90;;
28627;SDS011;15815;46.760;19.604;2023-07-08T03:11:53;441.52;;;412.80;;
28627;SDS011;15815;46.760;19.604;2023-07-08T03:14:18;439.00;;;410.58;;
28627;SDS011;15815;46.760;19.604;2023-07-08T03:16:47;449.08;;;419.25;;
28627;SDS011;15815;46.760;19.604;2023-07-08T03:19:14;429.20;;;400.75;;
28627;SDS011;15815;46.760;19.604;2023-07-08T03:21:40;445.00;;;414.90;;
28627;SDS011;15815;46.760;19.604;2023-07-08T03:24:08;452.23;;;422.90;;
28627;SDS011;15815;46.760;19.604;2023-07-08T03:26:35;446.27;;;416.55;;
28627;SDS011;15815;46.760;19.604;2023-07-08T03:29:00;418.45;;;390.15;;
28627;SDS011;15815;46.760;19.604;2023-07-08T03:31:27;423.42;;;394.77;;
28627;SDS011;15815;46.760;19.604;2023-07-08T03:33:52;435.17;;;406.05;;
28627;SDS011;15815;46.760;19.604;2023-07-08T03:36:18;422.60;;;394.60;;
28627;SDS011;15815;46.760;19.604;2023-07-08T03:38:45;416.80;;;388.17;;
28627;SDS011;15815;46.760;19.604;2023-07-08T03:41:10;404.50;;;376.92;;
28627;SDS011;15815;46.760;19.604;2023-07-08T03:43:36;403.30;;;376.38;;
28627;SDS011;15815;46.760;19.604;2023-07-08T03:46:02;399.67;;;372.92;;
28627;SDS011;15815;46.760;19.604;2023-07-08T03:48:28;410.75;;;381.65;;
28627;SDS011;15815;46.760;19.604;2023-07-08T03:50:53;402.85;;;375.42;;
28627;SDS011;15815;46.760;19.604;2023-07-08T03:53:19;400.73;;;374.40;;
28627;SDS011;15815;46.760;19.604;2023-07-08T03:55:47;394.10;;;367.48;;
28627;SDS011;15815;46.760;19.604;2023-07-08T03:58:14;399.95;;;373.23;;
28627;SDS011;15815;46.760;19.604;2023-07-08T04:00:39;379.25;;;353.42;;
28627;SDS011;15815;46.760;19.604;2023-07-08T04:03:08;382.52;;;356.90;;
28627;SDS011;15815;46.760;19.604;2023-07-08T04:05:36;372.83;;;346.97;;
28627;SDS011;15815;46.760;19.604;2023-07-08T04:08:01;365.35;;;340.80;;
28627;SDS011;15815;46.760;19.604;2023-07-08T04:10:28;375.75;;;350.55;;
28627;SDS011;15815;46.760;19.604;2023-07-08T04:12:53;352.67;;;328.88;;
28627;SDS011;15815;46.760;19.604;2023-07-08T04:15:19;381.90;;;356.73;;
28627;SDS011;15815;46.760;19.604;2023-07-08T04:17:47;370.80;;;346.00;;
28627;SDS011;15815;46.760;19.604;2023-07-08T04:20:14;410.05;;;382.58;;
28627;SDS011;15815;46.760;19.604;2023-07-08T04:22:41;380.85;;;354.02;;
28627;SDS011;15815;46.760;19.604;2023-07-08T04:25:07;411.25;;;383.33;;
28627;SDS011;15815;46.760;19.604;2023-07-08T04:27:33;427.27;;;398.40;;
28627;SDS011;15815;46.760;19.604;2023-07-08T04:29:58;469.50;;;437.88;;
28627;SDS011;15815;46.760;19.604;2023-07-08T04:32:24;533.45;;;494.63;;
28627;SDS011;15815;46.760;19.604;2023-07-08T04:34:49;574.70;;;534.05;;
28627;SDS011;15815;46.760;19.604;2023-07-08T04:37:15;608.95;;;566.05;;
28627;SDS011;15815;46.760;19.604;2023-07-08T04:39:41;628.90;;;583.22;;
28627;SDS011;15815;46.760;19.604;2023-07-08T04:42:06;646.28;;;597.97;;
28627;SDS011;15815;46.760;19.604;2023-07-08T04:44:32;679.17;;;625.55;;
28627;SDS011;15815;46.760;19.604;2023-07-08T04:46:57;708.50;;;650.55;;
28627;SDS011;15815;46.760;19.604;2023-07-08T04:49:24;653.92;;;603.13;;
28627;SDS011;15815;46.760;19.604;2023-07-08T04:51:50;610.90;;;564.30;;
28627;SDS011;15815;46.760;19.604;2023-07-08T04:54:16;513.90;;;478.25;;
28627;SDS011;15815;46.760;19.604;2023-07-08T04:56:46;382.15;;;357.23;;
28627;SDS011;15815;46.760;19.604;2023-07-08T04:59:14;339.90;;;318.80;;
28627;SDS011;15815;46.760;19.604;2023-07-08T05:01:44;306.48;;;287.67;;
28627;SDS011;15815;46.760;19.604;2023-07-08T05:04:14;253.05;;;237.25;;
28627;SDS011;15815;46.760;19.604;2023-07-08T05:06:41;203.95;;;191.75;;
28627;SDS011;15815;46.760;19.604;2023-07-08T05:09:07;220.27;;;207.52;;
28627;SDS011;15815;46.760;19.604;2023-07-08T05:11:33;202.88;;;190.95;;
28627;SDS011;15815;46.760;19.604;2023-07-08T05:13:59;217.25;;;204.15;;
28627;SDS011;15815;46.760;19.604;2023-07-08T05:16:25;256.60;;;240.07;;
28627;SDS011;15815;46.760;19.604;2023-07-08T05:18:51;189.63;;;178.02;;
28627;SDS011;15815;46.760;19.604;2023-07-08T05:21:17;414.52;;;386.38;;
28627;SDS011;15815;46.760;19.604;2023-07-08T05:23:44;466.38;;;435.95;;
28627;SDS011;15815;46.760;19.604;2023-07-08T05:26:10;505.08;;;470.35;;
28627;SDS011;15815;46.760;19.604;2023-07-08T05:28:36;514.45;;;479.80;;
28627;SDS011;15815;46.760;19.604;2023-07-08T05:31:02;492.40;;;459.70;;
28627;SDS011;15815;46.760;19.604;2023-07-08T05:33:28;470.63;;;440.33;;
28627;SDS011;15815;46.760;19.604;2023-07-08T05:35:58;421.35;;;394.83;;
28627;SDS011;15815;46.760;19.604;2023-07-08T05:38:24;417.30;;;390.80;;
28627;SDS011;15815;46.760;19.604;2023-07-08T05:40:50;420.30;;;393.67;;
28627;SDS011;15815;46.760;19.604;2023-07-08T05:43:22;412.65;;;387.52;;
28627;SDS011;15815;46.760;19.604;2023-07-08T05:45:48;420.52;;;394.60;;
28627;SDS011;15815;46.760;19.604;2023-07-08T05:48:14;358.35;;;337.20;;
28627;SDS011;15815;46.760;19.604;2023-07-08T05:50:39;330.00;;;310.30;;
28627;SDS011;15815;46.760;19.604;2023-07-08T05:53:05;351.83;;;330.45;;
28627;SDS011;15815;46.760;19.604;2023-07-08T05:55:35;302.20;;;284.35;;
28627;SDS011;15815;46.760;19.604;2023-07-08T05:58:03;299.20;;;281.52;;
28627;SDS011;15815;46.760;19.604;2023-07-08T06:00:29;270.90;;;255.05;;
28627;SDS011;15815;46.760;19.604;2023-07-08T06:02:54;284.30;;;266.70;;
28627;SDS011;15815;46.760;19.604;2023-07-08T06:05:20;274.33;;;258.08;;
28627;SDS011;15815;46.760;19.604;2023-07-08T06:07:45;272.52;;;256.48;;
28627;SDS011;15815;46.760;19.604;2023-07-08T06:10:13;256.05;;;241.13;;
28627;SDS011;15815;46.760;19.604;2023-07-08T06:12:40;213.43;;;200.18;;
28627;SDS011;15815;46.760;19.604;2023-07-08T06:15:06;210.85;;;198.18;;
28627;SDS011;15815;46.760;19.604;2023-07-08T06:17:32;197.75;;;186.35;;
28627;SDS011;15815;46.760;19.604;2023-07-08T06:19:57;290.58;;;272.85;;
28627;SDS011;15815;46.760;19.604;2023-07-08T06:22:23;163.80;;;153.98;;
28627;SDS011;15815;46.760;19.604;2023-07-08T06:24:48;159.65;;;150.32;;
28627;SDS011;15815;46.760;19.604;2023-07-08T06:27:14;176.95;;;166.55;;
28627;SDS011;15815;46.760;19.604;2023-07-08T06:29:40;162.20;;;152.77;;
28627;SDS011;15815;46.760;19.604;2023-07-08T06:32:06;184.15;;;173.85;;
28627;SDS011;15815;46.760;19.604;2023-07-08T06:34:32;136.55;;;128.35;;
28627;SDS011;15815;46.760;19.604;2023-07-08T06:37:01;158.15;;;148.50;;
28627;SDS011;15815;46.760;19.604;2023-07-08T06:39:26;163.38;;;153.70;;
28627;SDS011;15815;46.760;19.604;2023-07-08T06:41:52;138.52;;;129.95;;
28627;SDS011;15815;46.760;19.604;2023-07-08T06:44:17;140.95;;;132.65;;
28627;SDS011;15815;46.760;19.604;2023-07-08T06:46:43;109.55;;;103.13;;
28627;SDS011;15815;46.760;19.604;2023-07-08T06:49:09;114.60;;;108.25;;
28627;SDS011;15815;46.760;19.604;2023-07-08T06:51:35;109.88;;;103.88;;
28627;SDS011;15815;46.760;19.604;2023-07-08T06:54:00;135.52;;;127.60;;
28627;SDS011;15815;46.760;19.604;2023-07-08T06:56:26;135.60;;;127.97;;
28627;SDS011;15815;46.760;19.604;2023-07-08T06:58:54;144.75;;;136.73;;
28627;SDS011;15815;46.760;19.604;2023-07-08T07:01:19;137.65;;;129.88;;
28627;SDS011;15815;46.760;19.604;2023-07-08T07:03:49;130.38;;;122.65;;
28627;SDS011;15815;46.760;19.604;2023-07-08T07:06:15;125.40;;;118.23;;
28627;SDS011;15815;46.760;19.604;2023-07-08T07:08:40;119.75;;;113.05;;
28627;SDS011;15815;46.760;19.604;2023-07-08T07:11:06;141.65;;;133.65;;
28627;SDS011;15815;46.760;19.604;2023-07-08T07:13:34;140.48;;;132.52;;
28627;SDS011;15815;46.760;19.604;2023-07-08T07:16:00;119.57;;;112.57;;
28627;SDS011;15815;46.760;19.604;2023-07-08T07:18:25;104.60;;;98.72;;
28627;SDS011;15815;46.760;19.604;2023-07-08T07:20:52;101.10;;;95.57;;
28627;SDS011;15815;46.760;19.604;2023-07-08T07:23:19;124.10;;;116.70;;
28627;SDS011;15815;46.760;19.604;2023-07-08T07:25:48;131.15;;;123.10;;
28627;SDS011;15815;46.760;19.604;2023-07-08T07:28:14;130.68;;;122.72;;
28627;SDS011;15815;46.760;19.604;2023-07-08T07:30:40;100.75;;;95.00;;
28627;SDS011;15815;46.760;19.604;2023-07-08T07:33:05;109.82;;;103.65;;
28627;SDS011;15815;46.760;19.604;2023-07-08T07:35:31;103.22;;;97.25;;
28627;SDS011;15815;46.760;19.604;2023-07-08T07:37:56;117.03;;;109.97;;
28627;SDS011;15815;46.760;19.604;2023-07-08T07:40:22;113.13;;;106.55;;
28627;SDS011;15815;46.760;19.604;2023-07-08T07:42:48;118.88;;;111.93;;
28627;SDS011;15815;46.760;19.604;2023-07-08T07:45:13;111.70;;;105.63;;
28627;SDS011;15815;46.760;19.604;2023-07-08T07:47:39;133.38;;;125.63;;
28627;SDS011;15815;46.760;19.604;2023-07-08T07:52:40;113.63;;;106.95;;
28627;SDS011;15815;46.760;19.604;2023-07-08T07:55:06;134.73;;;127.15;;
28627;SDS011;15815;46.760;19.604;2023-07-08T07:57:32;103.28;;;97.40;;
28627;SDS011;15815;46.760;19.604;2023-07-08T07:59:59;112.57;;;106.43;;
28627;SDS011;15815;46.760;19.604;2023-07-08T08:02:25;103.65;;;98.03;;
28627;SDS011;15815;46.760;19.604;2023-07-08T08:04:51;103.65;;;97.53;;
28627;SDS011;15815;46.760;19.604;2023-07-08T08:07:16;100.82;;;94.35;;
28627;SDS011;15815;46.760;19.604;2023-07-08T08:09:42;119.38;;;112.43;;
28627;SDS011;15815;46.760;19.604;2023-07-08T08:12:11;127.50;;;120.22;;
28627;SDS011;15815;46.760;19.604;2023-07-08T08:14:37;118.97;;;112.25;;
28627;SDS011;15815;46.760;19.604;2023-07-08T08:17:03;119.80;;;112.10;;
28627;SDS011;15815;46.760;19.604;2023-07-08T08:19:29;135.65;;;128.25;;
28627;SDS011;15815;46.760;19.604;2023-07-08T08:21:54;114.30;;;107.85;;
28627;SDS011;15815;46.760;19.604;2023-07-08T08:24:20;94.43;;;89.32;;
28627;SDS011;15815;46.760;19.604;2023-07-08T08:26:45;101.07;;;95.53;;
28627;SDS011;15815;46.760;19.604;2023-07-08T08:29:11;95.88;;;90.65;;
28627;SDS011;15815;46.760;19.604;2023-07-08T08:31:36;105.95;;;100.07;;
28627;SDS011;15815;46.760;19.604;2023-07-08T08:34:02;130.75;;;122.55;;
28627;SDS011;15815;46.760;19.604;2023-07-08T08:36:30;108.63;;;102.50;;
28627;SDS011;15815;46.760;19.604;2023-07-08T08:38:55;108.82;;;102.85;;
28627;SDS011;15815;46.760;19.604;2023-07-08T08:41:29;109.13;;;102.18;;
28627;SDS011;15815;46.760;19.604;2023-07-08T08:43:57;94.72;;;89.00;;
28627;SDS011;15815;46.760;19.604;2023-07-08T08:51:46;118.68;;;111.88;;
28627;SDS011;15815;46.760;19.604;2023-07-08T08:54:13;114.03;;;107.22;;
28627;SDS011;15815;46.760;19.604;2023-07-08T09:05:23;103.25;;;97.47;;
28627;SDS011;15815;46.760;19.604;2023-07-08T09:13:41;100.10;;;94.53;;
28627;SDS011;15815;46.760;19.604;2023-07-08T09:21:48;109.70;;;103.78;;
28627;SDS011;15815;46.760;19.604;2023-07-08T09:24:20;93.88;;;88.38;;
28627;SDS011;15815;46.760;19.604;2023-07-08T09:26:52;102.53;;;96.75;;
28627;SDS011;15815;46.760;19.604;2023-07-08T09:29:20;100.47;;;94.43;;
28627;SDS011;15815;46.760;19.604;2023-07-08T09:31:49;116.60;;;110.13;;
28627;SDS011;15815;46.760;19.604;2023-07-08T09:34:16;106.57;;;99.45;;
28627;SDS011;15815;46.760;19.604;2023-07-08T09:36:46;100.05;;;94.30;;
28627;SDS011;15815;46.760;19.604;2023-07-08T09:39:14;92.03;;;86.97;;
28627;SDS011;15815;46.760;19.604;2023-07-08T09:41:43;104.30;;;98.22;;
28627;SDS011;15815;46.760;19.604;2023-07-08T09:49:16;123.90;;;116.82;;
28627;SDS011;15815;46.760;19.604;2023-07-08T09:51:47;109.03;;;102.28;;
28627;SDS011;15815;46.760;19.604;2023-07-08T09:54:12;125.32;;;117.90;;
28627;SDS011;15815;46.760;19.604;2023-07-08T09:56:41;125.20;;;118.00;;
28627;SDS011;15815;46.760;19.604;2023-07-08T09:59:11;109.95;;;103.55;;
28627;SDS011;15815;46.760;19.604;2023-07-08T10:01:38;88.97;;;84.25;;
28627;SDS011;15815;46.760;19.604;2023-07-08T10:04:05;112.63;;;106.03;;
28627;SDS011;15815;46.760;19.604;2023-07-08T10:06:33;126.82;;;119.43;;
28627;SDS011;15815;46.760;19.604;2023-07-08T10:09:00;110.13;;;103.93;;
28627;SDS011;15815;46.760;19.604;2023-07-08T10:11:29;151.27;;;142.35;;
28627;SDS011;15815;46.760;19.604;2023-07-08T10:14:24;145.63;;;137.10;;
28627;SDS011;15815;46.760;19.604;2023-07-08T10:16:53;133.80;;;126.35;;
28627;SDS011;15815;46.760;19.604;2023-07-08T10:19:19;153.63;;;144.10;;
28627;SDS011;15815;46.760;19.604;2023-07-08T10:27:35;180.80;;;170.80;;
28627;SDS011;15815;46.760;19.604;2023-07-08T10:30:23;208.00;;;195.75;;
28627;SDS011;15815;46.760;19.604;2023-07-08T10:35:32;201.30;;;190.13;;
28627;SDS011;15815;46.760;19.604;2023-07-08T10:45:45;186.88;;;176.68;;
28627;SDS011;15815;46.760;19.604;2023-07-08T10:48:24;215.10;;;203.30;;
28627;SDS011;15815;46.760;19.604;2023-07-08T10:51:47;190.68;;;180.32;;
28627;SDS011;15815;46.760;19.604;2023-07-08T10:56:58;216.50;;;204.57;;
28627;SDS011;15815;46.760;19.604;2023-07-08T10:59:52;225.95;;;213.20;;
28627;SDS011;15815;46.760;19.604;2023-07-08T11:05:26;238.52;;;225.43;;
28627;SDS011;15815;46.760;19.604;2023-07-08T11:08:15;303.65;;;285.60;;
28627;SDS011;15815;46.760;19.604;2023-07-08T11:10:56;291.27;;;275.05;;
28627;SDS011;15815;46.760;19.604;2023-07-08T11:13:27;312.90;;;295.58;;
28627;SDS011;15815;46.760;19.604;2023-07-08T11:18:53;377.40;;;354.95;;
28627;SDS011;15815;46.760;19.604;2023-07-08T11:21:39;279.35;;;263.30;;
28627;SDS011;15815;46.760;19.604;2023-07-08T11:27:00;321.92;;;303.25;;
28627;SDS011;15815;46.760;19.604;2023-07-08T11:29:39;291.35;;;274.48;;
28627;SDS011;15815;46.760;19.604;2023-07-08T11:32:11;297.05;;;279.55;;
28627;SDS011;15815;46.760;19.604;2023-07-08T11:34:39;317.20;;;298.53;;
28627;SDS011;15815;46.760;19.604;2023-07-08T11:37:08;282.40;;;266.52;;
28627;SDS011;15815;46.760;19.604;2023-07-08T11:39:38;324.45;;;305.75;;
28627;SDS011;15815;46.760;19.604;2023-07-08T11:42:19;316.05;;;297.88;;
28627;SDS011;15815;46.760;19.604;2023-07-08T11:44:54;325.98;;;306.90;;
28627;SDS011;15815;46.760;19.604;2023-07-08T11:47:25;311.88;;;294.00;;
28627;SDS011;15815;46.760;19.604;2023-07-08T11:49:51;304.50;;;285.90;;
28627;SDS011;15815;46.760;19.604;2023-07-08T11:52:22;380.77;;;358.00;;
28627;SDS011;15815;46.760;19.604;2023-07-08T11:54:48;423.00;;;396.88;;
28627;SDS011;15815;46.760;19.604;2023-07-08T11:57:42;329.15;;;309.73;;
28627;SDS011;15815;46.760;19.604;2023-07-08T12:00:18;309.10;;;291.10;;
28627;SDS011;15815;46.760;19.604;2023-07-08T12:07:56;331.95;;;312.77;;
28627;SDS011;15815;46.760;19.604;2023-07-08T12:13:05;415.08;;;389.23;;
28627;SDS011;15815;46.760;19.604;2023-07-08T12:15:37;398.55;;;372.10;;
28627;SDS011;15815;46.760;19.604;2023-07-08T12:18:09;443.92;;;416.02;;
28627;SDS011;15815;46.760;19.604;2023-07-08T12:20:39;409.60;;;384.42;;
28627;SDS011;15815;46.760;19.604;2023-07-08T12:23:17;366.67;;;344.58;;
28627;SDS011;15815;46.760;19.604;2023-07-08T12:25:44;343.75;;;323.70;;
28627;SDS011;15815;46.760;19.604;2023-07-08T12:28:11;378.50;;;355.83;;
28627;SDS011;15815;46.760;19.604;2023-07-08T12:30:36;423.55;;;397.20;;
28627;SDS011;15815;46.760;19.604;2023-07-08T12:33:03;346.95;;;326.02;;
28627;SDS011;15815;46.760;19.604;2023-07-08T12:35:34;329.20;;;310.00;;
28627;SDS011;15815;46.760;19.604;2023-07-08T12:38:24;423.23;;;397.20;;
28627;SDS011;15815;46.760;19.604;2023-07-08T12:41:08;348.73;;;327.90;;
28627;SDS011;15815;46.760;19.604;2023-07-08T12:43:36;400.27;;;375.98;;
28627;SDS011;15815;46.760;19.604;2023-07-08T12:46:02;299.58;;;281.88;;
28627;SDS011;15815;46.760;19.604;2023-07-08T12:48:33;361.13;;;339.55;;
28627;SDS011;15815;46.760;19.604;2023-07-08T12:50:58;396.17;;;371.73;;
28627;SDS011;15815;46.760;19.604;2023-07-08T12:53:24;327.95;;;308.67;;
28627;SDS011;15815;46.760;19.604;2023-07-08T12:55:50;406.77;;;382.13;;
28627;SDS011;15815;46.760;19.604;2023-07-08T12:58:22;319.52;;;299.75;;
28627;SDS011;15815;46.760;19.604;2023-07-08T13:00:50;352.20;;;331.80;;
28627;SDS011;15815;46.760;19.604;2023-07-08T13:03:17;402.10;;;376.98;;
28627;SDS011;15815;46.760;19.604;2023-07-08T13:05:45;381.00;;;357.90;;
28627;SDS011;15815;46.760;19.604;2023-07-08T13:08:13;323.00;;;303.92;;
28627;SDS011;15815;46.760;19.604;2023-07-08T13:10:40;419.42;;;393.80;;
28627;SDS011;15815;46.760;19.604;2023-07-08T13:13:07;306.08;;;288.38;;
28627;SDS011;15815;46.760;19.604;2023-07-08T13:15:40;306.40;;;289.05;;
28627;SDS011;15815;46.760;19.604;2023-07-08T13:18:21;342.52;;;322.60;;
28627;SDS011;15815;46.760;19.604;2023-07-08T13:20:53;343.10;;;323.70;;
28627;SDS011;15815;46.760;19.604;2023-07-08T13:23:20;346.20;;;326.13;;
28627;SDS011;15815;46.760;19.604;2023-07-08T13:25:50;349.00;;;328.63;;
28627;SDS011;15815;46.760;19.604;2023-07-08T13:28:18;335.20;;;314.88;;
28627;SDS011;15815;46.760;19.604;2023-07-08T13:31:13;329.45;;;310.50;;
28627;SDS011;15815;46.760;19.604;2023-07-08T13:33:47;291.30;;;275.02;;
28627;SDS011;15815;46.760;19.604;2023-07-08T13:36:16;318.65;;;300.38;;
28627;SDS011;15815;46.760;19.604;2023-07-08T13:38:44;319.05;;;301.17;;
28627;SDS011;15815;46.760;19.604;2023-07-08T13:41:10;331.23;;;309.63;;
28627;SDS011;15815;46.760;19.604;2023-07-08T13:43:36;319.02;;;300.60;;
28627;SDS011;15815;46.760;19.604;2023-07-08T13:46:04;306.67;;;289.58;;
28627;SDS011;15815;46.760;19.604;2023-07-08T13:48:33;300.52;;;283.65;;
28627;SDS011;15815;46.760;19.604;2023-07-08T13:51:19;308.50;;;291.33;;
28627;SDS011;15815;46.760;19.604;2023-07-08T13:53:52;314.85;;;297.30;;
28627;SDS011;15815;46.760;19.604;2023-07-08T13:59:02;199.40;;;188.60;;
28627;SDS011;15815;46.760;19.604;2023-07-08T14:01:30;354.23;;;333.30;;
28627;SDS011;15815;46.760;19.604;2023-07-08T14:03:57;433.98;;;407.70;;
28627;SDS011;15815;46.760;19.604;2023-07-08T14:06:24;347.52;;;328.15;;
28627;SDS011;15815;46.760;19.604;2023-07-08T14:08:53;348.88;;;329.10;;
28627;SDS011;15815;46.760;19.604;2023-07-08T14:11:21;380.40;;;358.30;;
28627;SDS011;15815;46.760;19.604;2023-07-08T14:13:47;329.42;;;310.95;;
28627;SDS011;15815;46.760;19.604;2023-07-08T14:16:25;378.00;;;356.42;;
28627;SDS011;15815;46.760;19.604;2023-07-08T14:18:57;346.73;;;327.42;;
28627;SDS011;15815;46.760;19.604;2023-07-08T14:21:26;359.33;;;338.83;;
28627;SDS011;15815;46.760;19.604;2023-07-08T14:23:51;360.75;;;340.05;;
28627;SDS011;15815;46.760;19.604;2023-07-08T14:26:18;360.38;;;339.63;;
28627;SDS011;15815;46.760;19.604;2023-07-08T14:28:43;356.48;;;335.80;;
28627;SDS011;15815;46.760;19.604;2023-07-08T14:31:12;414.45;;;390.25;;
28627;SDS011;15815;46.760;19.604;2023-07-08T14:33:42;417.10;;;392.38;;
28627;SDS011;15815;46.760;19.604;2023-07-08T14:36:08;365.35;;;344.63;;
28627;SDS011;15815;46.760;19.604;2023-07-08T14:38:35;345.38;;;326.13;;
28627;SDS011;15815;46.760;19.604;2023-07-08T14:41:01;337.85;;;319.08;;
28627;SDS011;15815;46.760;19.604;2023-07-08T14:43:28;297.70;;;281.10;;
28627;SDS011;15815;46.760;19.604;2023-07-08T14:45:55;373.98;;;352.70;;
28627;SDS011;15815;46.760;19.604;2023-07-08T14:48:24;352.90;;;332.83;;
28627;SDS011;15815;46.760;19.604;2023-07-08T14:50:53;358.85;;;338.20;;
28627;SDS011;15815;46.760;19.604;2023-07-08T14:53:19;352.08;;;332.15;;
28627;SDS011;15815;46.760;19.604;2023-07-08T14:55:45;393.40;;;370.80;;
28627;SDS011;15815;46.760;19.604;2023-07-08T14:58:17;347.45;;;327.90;;
28627;SDS011;15815;46.760;19.604;2023-07-08T15:00:54;382.00;;;360.02;;
28627;SDS011;15815;46.760;19.604;2023-07-08T15:03:21;369.73;;;348.83;;
28627;SDS011;15815;46.760;19.604;2023-07-08T15:05:46;428.08;;;402.50;;
28627;SDS011;15815;46.760;19.604;2023-07-08T15:08:14;430.13;;;405.15;;
28627;SDS011;15815;46.760;19.604;2023-07-08T15:10:49;401.48;;;377.70;;
28627;SDS011;15815;46.760;19.604;2023-07-08T15:13:18;353.42;;;333.17;;